Terminal Aerodrome Forecast
Issued by NWS Cleveland, OH

Home | Current Version | Previous Version | Graphics & Text | Print | Product List | Glossary On
Versions: 1 2 3 4 5 6 7 8 9 10 11 12 13 14 15 16 17 18 19 20 21 22 23 24 25 26 27 28
000
FTUS41 KCLE 162320
TAFERI
TAF
KERI 162320Z 1700/1724 06007KT 6SM BR OVC008
      TEMPO 1700/1704 5SM -FZDZ BR OVC006
     FM170600 07007KT 6SM BR OVC008
      TEMPO 1706/1710 4SM BR OVC012
     FM171000 09006KT P6SM OVC012
     FM171600 10005KT P6SM OVC035
     FM172100 16006KT 6SM BR OVC025=

USA.gov is the U.S. government's official web portal to all federal, state and local government web resources and services.